createdAt,value
2018-08-12T00:00:51.065Z,994.68
2018-08-12T00:01:50.984Z,994.69
2018-08-12T00:02:50.909Z,994.71
2018-08-12T00:03:50.833Z,994.72
2018-08-12T00:04:50.758Z,994.70
2018-08-12T00:05:50.681Z,994.69
2018-08-12T00:06:50.605Z,994.66
2018-08-12T00:07:50.529Z,994.64
2018-08-12T00:08:50.453Z,994.61
2018-08-12T00:09:50.378Z,994.61
2018-08-12T00:10:50.301Z,994.58
2018-08-12T00:11:50.227Z,994.57
2018-08-12T00:12:50.151Z,994.55
2018-08-12T00:13:50.072Z,994.55
2018-08-12T00:14:49.996Z,994.53
2018-08-12T00:15:49.920Z,994.52
2018-08-12T00:16:49.844Z,994.53
2018-08-12T00:17:49.767Z,994.57
2018-08-12T00:18:49.693Z,994.50
2018-08-12T00:19:49.615Z,994.52
2018-08-12T00:20:49.539Z,994.53
2018-08-12T00:21:49.464Z,994.49
2018-08-12T00:22:49.388Z,994.52
2018-08-12T00:23:49.311Z,994.49
2018-08-12T00:24:49.237Z,994.48
2018-08-12T00:25:49.159Z,994.51
2018-08-12T00:26:49.081Z,994.49
2018-08-12T00:27:49.005Z,994.49
2018-08-12T00:28:48.930Z,994.47
2018-08-12T00:29:48.895Z,994.46
2018-08-12T00:30:48.777Z,994.46
2018-08-12T00:31:48.702Z,994.42
2018-08-12T00:32:48.625Z,994.43
2018-08-12T00:33:48.549Z,994.48
2018-08-12T00:34:48.472Z,994.45
2018-08-12T00:35:48.396Z,994.45
2018-08-12T00:36:48.319Z,994.45
2018-08-12T00:37:48.244Z,994.47
2018-08-12T00:38:48.176Z,994.44
2018-08-12T00:39:48.091Z,994.48
2018-08-12T00:40:48.015Z,994.46
2018-08-12T00:41:47.939Z,994.45
2018-08-12T00:42:47.863Z,994.41
2018-08-12T00:43:47.786Z,994.40
2018-08-12T00:44:47.760Z,994.43
2018-08-12T00:45:47.636Z,994.42
2018-08-12T00:46:47.557Z,994.37
2018-08-12T00:47:47.486Z,994.40
2018-08-12T00:48:47.404Z,994.38
2018-08-12T00:49:47.328Z,994.37
2018-08-12T00:50:47.253Z,994.37
2018-08-12T00:51:47.174Z,994.36
2018-08-12T00:52:47.106Z,994.33
2018-08-12T00:53:47.023Z,994.29
2018-08-12T00:54:46.947Z,994.28
2018-08-12T00:55:46.869Z,994.25
2018-08-12T00:56:46.793Z,994.19
2018-08-12T00:57:46.717Z,994.23
2018-08-12T00:58:46.639Z,994.19
2018-08-12T00:59:46.564Z,994.20
2018-08-12T01:00:46.487Z,994.17
2018-08-12T01:01:46.410Z,994.22
2018-08-12T01:02:46.334Z,994.20
2018-08-12T01:03:46.257Z,994.20
2018-08-12T01:04:46.181Z,994.14
2018-08-12T01:05:46.105Z,994.17
2018-08-12T01:06:46.030Z,994.16
2018-08-12T01:07:45.951Z,994.14
2018-08-12T01:08:45.874Z,994.17
2018-08-12T01:09:45.799Z,994.16
2018-08-12T01:10:45.721Z,994.21
2018-08-12T01:11:45.644Z,994.19
2018-08-12T01:12:45.568Z,994.19
2018-08-12T01:13:45.491Z,994.18
2018-08-12T01:14:45.415Z,994.24
2018-08-12T01:15:45.339Z,994.19
2018-08-12T01:16:45.262Z,994.20
2018-08-12T01:17:45.186Z,994.21
2018-08-12T01:18:45.109Z,994.17
2018-08-12T01:19:45.032Z,994.16
2018-08-12T01:20:44.955Z,994.15
2018-08-12T01:21:44.881Z,994.12
2018-08-12T01:22:44.804Z,994.12
2018-08-12T01:23:44.725Z,994.14
2018-08-12T01:24:44.647Z,994.10
2018-08-12T01:25:44.571Z,994.06
2018-08-12T01:26:44.495Z,994.08
2018-08-12T01:27:44.417Z,994.07
2018-08-12T01:28:44.340Z,994.08
2018-08-12T01:29:44.264Z,994.10
2018-08-12T01:30:44.188Z,994.06
2018-08-12T01:31:44.111Z,994.11
2018-08-12T01:32:44.035Z,994.09
2018-08-12T01:33:43.959Z,994.08
2018-08-12T01:34:43.882Z,994.08
2018-08-12T01:35:43.808Z,994.03
2018-08-12T01:36:43.727Z,994.06
2018-08-12T01:37:43.650Z,994.04
2018-08-12T01:38:43.575Z,994.05
2018-08-12T01:39:43.496Z,994.08
2018-08-12T01:40:43.419Z,994.08
2018-08-12T01:41:43.344Z,994.10
2018-08-12T01:42:43.266Z,994.10
2018-08-12T01:43:43.189Z,994.11
2018-08-12T01:44:43.113Z,994.10
2018-08-12T01:45:43.036Z,994.10
2018-08-12T01:46:42.965Z,994.07
2018-08-12T01:47:42.885Z,994.08
2018-08-12T01:48:42.806Z,994.09
2018-08-12T01:49:42.730Z,994.05
2018-08-12T01:50:42.653Z,994.07
2018-08-12T01:51:42.576Z,994.12
2018-08-12T01:52:42.498Z,994.04
2018-08-12T01:53:42.423Z,994.05
2018-08-12T01:54:42.346Z,994.03
2018-08-12T01:55:42.268Z,994.03
2018-08-12T01:56:42.192Z,994.03
2018-08-12T01:57:42.117Z,993.98
2018-08-12T01:58:42.038Z,993.99
2018-08-12T01:59:41.962Z,993.96
2018-08-12T02:00:41.884Z,993.95
2018-08-12T02:01:41.808Z,993.97
2018-08-12T02:02:41.731Z,993.94
2018-08-12T02:03:41.653Z,993.94
2018-08-12T02:04:41.577Z,993.92
2018-08-12T02:05:41.501Z,993.88
2018-08-12T02:06:41.424Z,993.87
2018-08-12T02:07:41.347Z,993.85
2018-08-12T02:08:41.269Z,993.85
2018-08-12T02:09:41.193Z,993.81
2018-08-12T02:10:41.115Z,993.84
2018-08-12T02:11:41.038Z,993.83
2018-08-12T02:12:40.960Z,993.82
2018-08-12T02:13:40.883Z,993.80
2018-08-12T02:14:40.806Z,993.81
2018-08-12T02:15:40.731Z,993.80
2018-08-12T02:16:40.701Z,993.73
2018-08-12T02:17:40.575Z,993.73
2018-08-12T02:18:40.499Z,993.70
2018-08-12T02:19:40.420Z,993.69
2018-08-12T02:20:40.343Z,993.68
2018-08-12T02:21:40.266Z,993.67
2018-08-12T02:22:40.189Z,993.65
2018-08-12T02:23:40.112Z,993.64
2018-08-12T02:24:40.035Z,993.61
2018-08-12T02:25:39.960Z,993.61
2018-08-12T02:26:39.880Z,993.62
2018-08-12T02:27:39.803Z,993.59
2018-08-12T02:28:39.724Z,993.58
2018-08-12T02:29:39.648Z,993.57
2018-08-12T02:30:39.573Z,993.54
2018-08-12T02:31:39.494Z,993.49
2018-08-12T02:32:39.416Z,993.50
2018-08-12T02:33:39.339Z,993.49
2018-08-12T02:34:39.269Z,993.46
2018-08-12T02:35:39.184Z,993.47
2018-08-12T02:36:39.111Z,993.50
2018-08-12T02:37:39.031Z,993.45
2018-08-12T02:38:38.953Z,993.47
2018-08-12T02:39:38.875Z,993.45
2018-08-12T02:40:38.798Z,993.48
2018-08-12T02:41:38.722Z,993.48
2018-08-12T02:42:38.644Z,993.46
2018-08-12T02:43:38.572Z,993.47
2018-08-12T02:44:38.491Z,993.46
2018-08-12T02:45:38.412Z,993.51
2018-08-12T02:46:38.375Z,993.52
2018-08-12T02:47:38.258Z,993.52
2018-08-12T02:48:38.180Z,993.54
2018-08-12T02:49:38.103Z,993.52
2018-08-12T02:50:38.026Z,993.50
2018-08-12T02:51:37.953Z,993.51
2018-08-12T02:52:37.871Z,993.48
2018-08-12T02:53:37.794Z,993.47
2018-08-12T02:54:37.717Z,993.48
2018-08-12T02:55:37.640Z,993.40
2018-08-12T02:56:37.581Z,993.39
2018-08-12T02:57:37.486Z,993.39
2018-08-12T02:58:37.407Z,993.38
2018-08-12T02:59:37.329Z,993.34
2018-08-12T03:00:37.256Z,993.34
2018-08-12T03:01:37.176Z,993.35
2018-08-12T03:02:37.098Z,993.38
2018-08-12T03:03:37.021Z,993.34
2018-08-12T03:04:36.943Z,993.32
2018-08-12T03:05:36.867Z,993.27
2018-08-12T03:06:36.789Z,993.28
2018-08-12T03:07:36.711Z,993.26
2018-08-12T03:08:36.633Z,993.29
2018-08-12T03:09:36.559Z,993.24
2018-08-12T03:10:36.479Z,993.24
2018-08-12T03:11:36.401Z,993.23
2018-08-12T03:12:36.323Z,993.28
2018-08-12T03:13:36.246Z,993.27
2018-08-12T03:14:36.169Z,993.24
2018-08-12T03:15:36.091Z,993.27
2018-08-12T03:16:36.014Z,993.22
2018-08-12T03:17:35.938Z,993.23
2018-08-12T03:18:35.858Z,993.18
2018-08-12T03:19:35.779Z,993.18
2018-08-12T03:20:35.704Z,993.18
2018-08-12T03:21:35.626Z,993.16
2018-08-12T03:22:35.607Z,993.17
2018-08-12T03:23:35.473Z,993.17
2018-08-12T03:24:35.391Z,993.17
2018-08-12T03:25:35.318Z,993.17
2018-08-12T03:26:35.237Z,993.16
2018-08-12T03:27:35.162Z,993.19
2018-08-12T03:28:35.082Z,993.20
2018-08-12T03:29:35.005Z,993.21
2018-08-12T03:30:34.928Z,993.21
2018-08-12T03:31:34.850Z,993.22
2018-08-12T03:32:34.773Z,993.22
2018-08-12T03:33:34.845Z,993.21
2018-08-12T03:34:34.618Z,993.19
2018-08-12T03:35:34.539Z,993.23
2018-08-12T03:36:34.460Z,993.22
2018-08-12T03:37:34.386Z,993.20
2018-08-12T03:38:34.307Z,993.21
2018-08-12T03:39:34.229Z,993.21
2018-08-12T03:40:34.152Z,993.22
2018-08-12T03:41:34.076Z,993.23
2018-08-12T03:42:33.999Z,993.19
2018-08-12T03:43:33.919Z,993.21
2018-08-12T03:44:33.843Z,993.20
2018-08-12T03:45:33.766Z,993.18
2018-08-12T03:46:33.687Z,993.18
2018-08-12T03:47:33.608Z,993.17
2018-08-12T03:48:33.531Z,993.16
2018-08-12T03:49:33.458Z,993.14
2018-08-12T03:50:33.377Z,993.10
2018-08-12T03:51:33.298Z,993.13
2018-08-12T03:52:33.221Z,993.11
2018-08-12T03:53:33.145Z,993.09
2018-08-12T03:54:33.068Z,993.09
2018-08-12T03:55:32.988Z,993.12
2018-08-12T03:56:32.910Z,993.10
2018-08-12T03:57:32.833Z,993.10
2018-08-12T03:58:32.755Z,993.10
2018-08-12T03:59:33.177Z,993.11
2018-08-12T04:00:32.601Z,993.09
2018-08-12T04:01:32.525Z,993.05
2018-08-12T04:02:32.447Z,993.03
2018-08-12T04:03:32.371Z,993.06
2018-08-12T04:04:32.291Z,993.02
2018-08-12T04:05:32.213Z,993.02
2018-08-12T04:06:32.138Z,993.00
2018-08-12T04:07:32.056Z,993.00
2018-08-12T04:08:31.979Z,992.98
2018-08-12T04:09:31.901Z,993.00
2018-08-12T04:10:31.824Z,993.01
2018-08-12T04:11:31.748Z,993.03
2018-08-12T04:12:31.669Z,993.02
2018-08-12T04:13:31.593Z,993.02
2018-08-12T04:14:31.513Z,993.01
2018-08-12T04:15:31.434Z,993.00
2018-08-12T04:16:31.358Z,992.99
2018-08-12T04:17:31.284Z,992.99
2018-08-12T04:18:31.203Z,993.01
2018-08-12T04:19:31.123Z,992.95
2018-08-12T04:20:31.048Z,992.99
2018-08-12T04:21:30.967Z,992.96
2018-08-12T04:22:30.897Z,992.99
2018-08-12T04:23:30.818Z,993.02
2018-08-12T04:24:30.736Z,992.95
2018-08-12T04:25:30.707Z,993.02
2018-08-12T04:26:30.581Z,993.01
2018-08-12T04:27:30.501Z,992.98
2018-08-12T04:28:30.426Z,993.00
2018-08-12T04:29:30.347Z,992.99
2018-08-12T04:30:30.268Z,993.02
2018-08-12T04:31:30.191Z,992.99
2018-08-12T04:32:30.113Z,993.00
2018-08-12T04:33:30.037Z,993.02
2018-08-12T04:34:29.957Z,993.01
2018-08-12T04:35:29.878Z,993.02
2018-08-12T04:36:29.802Z,993.01
2018-08-12T04:37:29.722Z,992.99
2018-08-12T04:38:29.646Z,993.00
2018-08-12T04:39:29.566Z,992.96
2018-08-12T04:40:29.488Z,992.97
2018-08-12T04:41:29.411Z,992.91
2018-08-12T04:42:29.335Z,992.92
2018-08-12T04:43:29.255Z,992.94
2018-08-12T04:44:29.177Z,992.91
2018-08-12T04:45:29.100Z,992.90
2018-08-12T04:46:29.023Z,992.90
2018-08-12T04:47:28.946Z,992.90
2018-08-12T04:48:28.870Z,992.90
2018-08-12T04:49:28.788Z,992.89
2018-08-12T04:50:28.711Z,992.89
2018-08-12T04:51:28.635Z,992.88
2018-08-12T04:52:28.554Z,992.91
2018-08-12T04:53:28.478Z,992.88
2018-08-12T04:54:28.399Z,992.88
2018-08-12T04:55:28.322Z,992.85
2018-08-12T04:56:28.243Z,992.85
2018-08-12T04:57:28.165Z,992.84
2018-08-12T04:58:28.089Z,992.88
2018-08-12T04:59:28.010Z,992.81
2018-08-12T05:00:27.935Z,992.86
2018-08-12T05:01:27.854Z,992.83
2018-08-12T05:02:27.777Z,992.83
2018-08-12T05:03:27.700Z,992.86
2018-08-12T05:04:27.621Z,992.83
2018-08-12T05:05:27.544Z,992.83
2018-08-12T05:06:27.467Z,992.82
2018-08-12T05:07:27.392Z,992.85
2018-08-12T05:08:27.310Z,992.85
2018-08-12T05:09:27.235Z,992.87
2018-08-12T05:10:27.156Z,992.83
2018-08-12T05:11:27.077Z,992.88
2018-08-12T05:12:27.000Z,992.83
2018-08-12T05:13:26.924Z,992.85
2018-08-12T05:14:26.845Z,992.84
2018-08-12T05:15:26.768Z,992.81
2018-08-12T05:16:26.693Z,992.84
2018-08-12T05:17:26.612Z,992.85
2018-08-12T05:18:26.535Z,992.83
2018-08-12T05:19:26.457Z,992.84
2018-08-12T05:20:26.380Z,992.84
2018-08-12T05:21:26.307Z,992.79
2018-08-12T05:22:26.225Z,992.79
2018-08-12T05:23:26.158Z,992.81
2018-08-12T05:24:26.070Z,992.77
2018-08-12T05:25:25.993Z,992.77
2018-08-12T05:26:25.915Z,992.76
2018-08-12T05:27:25.837Z,992.83
2018-08-12T05:28:25.763Z,992.78
2018-08-12T05:29:25.684Z,992.81
2018-08-12T05:30:25.606Z,992.84
2018-08-12T05:31:25.529Z,992.85
2018-08-12T05:32:25.451Z,992.87
2018-08-12T05:33:25.375Z,992.87
2018-08-12T05:34:25.299Z,992.86
2018-08-12T05:35:25.220Z,992.85
2018-08-12T05:36:25.143Z,992.84
2018-08-12T05:37:25.069Z,992.77
2018-08-12T05:38:24.990Z,992.76
2018-08-12T05:39:24.913Z,992.77
2018-08-12T05:40:24.835Z,992.75
2018-08-12T05:41:24.758Z,992.77
2018-08-12T05:42:24.682Z,992.76
2018-08-12T05:43:24.605Z,992.74
2018-08-12T05:44:24.528Z,992.75
2018-08-12T05:45:24.451Z,992.79
2018-08-12T05:46:24.375Z,992.75
2018-08-12T05:47:24.298Z,992.79
2018-08-12T05:48:24.227Z,992.74
2018-08-12T05:49:24.144Z,992.72
2018-08-12T05:50:24.069Z,992.75
2018-08-12T05:51:24.009Z,992.67
2018-08-12T05:52:23.916Z,992.67
2018-08-12T05:53:23.839Z,992.69
2018-08-12T05:54:23.764Z,992.63
2018-08-12T05:55:23.687Z,992.66
2018-08-12T05:56:23.609Z,992.64
2018-08-12T05:57:23.535Z,992.63
2018-08-12T05:58:23.458Z,992.63
2018-08-12T05:59:23.380Z,992.64
2018-08-12T06:00:23.306Z,992.65
2018-08-12T06:01:23.229Z,992.67
2018-08-12T06:02:23.157Z,992.61
2018-08-12T06:03:23.077Z,992.61
2018-08-12T06:04:23.001Z,992.62
2018-08-12T06:05:22.925Z,992.57
2018-08-12T06:06:22.850Z,992.52
2018-08-12T06:07:22.774Z,992.54
2018-08-12T06:08:22.700Z,992.55
2018-08-12T06:09:22.622Z,992.49
2018-08-12T06:10:22.548Z,992.52
2018-08-12T06:11:22.470Z,992.53
2018-08-12T06:12:22.395Z,992.51
2018-08-12T06:13:22.319Z,992.52
2018-08-12T06:14:22.244Z,992.50
2018-08-12T06:15:22.173Z,992.50
2018-08-12T06:16:22.093Z,992.48
2018-08-12T06:17:22.096Z,992.48
2018-08-12T06:18:21.944Z,992.47
2018-08-12T06:19:21.867Z,992.48
2018-08-12T06:20:21.792Z,992.48
2018-08-12T06:21:21.718Z,992.46
2018-08-12T06:22:21.644Z,992.49
2018-08-12T06:23:21.567Z,992.50
2018-08-12T06:24:21.492Z,992.47
2018-08-12T06:25:21.417Z,992.46
2018-08-12T06:26:21.342Z,992.42
2018-08-12T06:27:21.266Z,992.37
2018-08-12T06:28:21.192Z,992.35
2018-08-12T06:29:21.140Z,992.33
2018-08-12T06:30:21.043Z,992.32
2018-08-12T06:31:20.966Z,992.37
2018-08-12T06:32:20.909Z,992.37
2018-08-12T06:33:20.819Z,992.37
2018-08-12T06:34:20.803Z,992.34
2018-08-12T06:35:20.670Z,992.41
2018-08-12T06:36:20.595Z,992.38
2018-08-12T06:37:20.519Z,992.40
2018-08-12T06:38:20.447Z,992.44
2018-08-12T06:39:20.371Z,992.44
2018-08-12T06:40:20.298Z,992.45
2018-08-12T06:41:20.224Z,992.48
2018-08-12T06:42:20.148Z,992.46
2018-08-12T06:43:20.075Z,992.45
2018-08-12T06:44:20.000Z,992.46
2018-08-12T06:45:19.926Z,992.49
2018-08-12T06:46:19.907Z,992.49
2018-08-12T06:47:19.778Z,992.48
2018-08-12T06:48:19.707Z,992.46
2018-08-12T06:49:19.630Z,992.48
2018-08-12T06:50:19.556Z,992.51
2018-08-12T06:51:19.482Z,992.53
2018-08-12T06:52:19.408Z,992.51
2018-08-12T06:53:19.335Z,992.52
2018-08-12T06:54:19.260Z,992.55
2018-08-12T06:55:19.185Z,992.51
2018-08-12T06:56:19.113Z,992.53
2018-08-12T06:57:19.042Z,992.53
2018-08-12T06:58:18.965Z,992.51
2018-08-12T06:59:18.890Z,992.52
2018-08-12T07:00:18.879Z,992.53
2018-08-12T07:01:18.756Z,992.52
2018-08-12T07:02:18.669Z,992.53
2018-08-12T07:03:18.597Z,992.55
2018-08-12T07:04:18.523Z,992.47
2018-08-12T07:05:18.449Z,992.48
2018-08-12T07:06:18.376Z,992.46
2018-08-12T07:07:18.302Z,992.49
2018-08-12T07:08:18.229Z,992.43
2018-08-12T07:09:18.156Z,992.44
2018-08-12T07:10:18.083Z,992.40
2018-08-12T07:11:18.011Z,992.42
2018-08-12T07:12:17.938Z,992.41
2018-08-12T07:13:17.865Z,992.42
2018-08-12T07:14:17.848Z,992.41
2018-08-12T07:15:17.718Z,992.40
2018-08-12T07:16:17.645Z,992.40
2018-08-12T07:17:17.573Z,992.40
2018-08-12T07:18:17.501Z,992.45
2018-08-12T07:19:17.427Z,992.47
2018-08-12T07:20:17.354Z,992.43
2018-08-12T07:21:17.282Z,992.44
2018-08-12T07:22:17.209Z,992.42
2018-08-12T07:23:17.138Z,992.39
2018-08-12T07:24:17.064Z,992.39
2018-08-12T07:25:16.991Z,992.38
2018-08-12T07:26:16.920Z,992.36
2018-08-12T07:27:16.845Z,992.38
2018-08-12T07:28:16.773Z,992.38
2018-08-12T07:29:16.703Z,992.31
2018-08-12T07:30:16.629Z,992.33
2018-08-12T07:31:16.556Z,992.33
2018-08-12T07:32:16.484Z,992.32
2018-08-12T07:33:16.411Z,992.34
2018-08-12T07:34:16.341Z,992.33
2018-08-12T07:35:16.273Z,992.29
2018-08-12T07:36:16.196Z,992.28
2018-08-12T07:37:16.122Z,992.30
2018-08-12T07:38:16.053Z,992.25
2018-08-12T07:39:15.978Z,992.27
2018-08-12T07:40:15.907Z,992.23
2018-08-12T07:41:15.835Z,992.25
2018-08-12T07:42:15.762Z,992.23
2018-08-12T07:43:15.693Z,992.24
2018-08-12T07:44:15.618Z,992.18
2018-08-12T07:45:15.545Z,992.17
2018-08-12T07:46:15.474Z,992.16
2018-08-12T07:47:15.404Z,992.17
2018-08-12T07:48:15.330Z,992.16
2018-08-12T07:49:15.259Z,992.14
2018-08-12T07:50:15.186Z,992.11
2018-08-12T07:51:15.115Z,992.13
2018-08-12T07:52:15.042Z,992.14
2018-08-12T07:53:14.970Z,992.14
2018-08-12T07:54:14.900Z,992.10
2018-08-12T07:55:14.826Z,992.11
2018-08-12T07:56:14.758Z,992.10
2018-08-12T07:57:14.683Z,992.11
2018-08-12T07:58:14.614Z,992.13
2018-08-12T07:59:14.540Z,992.11
2018-08-12T08:00:14.472Z,992.08
2018-08-12T08:01:14.399Z,992.10
2018-08-12T08:02:14.325Z,992.09
2018-08-12T08:03:14.253Z,992.11
2018-08-12T08:04:14.182Z,992.09
2018-08-12T08:05:14.110Z,992.07
2018-08-12T08:06:14.080Z,992.10
2018-08-12T08:07:13.968Z,992.08
2018-08-12T08:08:13.895Z,992.10
2018-08-12T08:09:13.825Z,992.10
2018-08-12T08:10:13.753Z,992.12
2018-08-12T08:11:13.682Z,992.12
2018-08-12T08:12:13.610Z,992.14
2018-08-12T08:13:13.540Z,992.10
2018-08-12T08:14:13.471Z,992.08
2018-08-12T08:15:13.396Z,992.10
2018-08-12T08:16:13.325Z,992.06
2018-08-12T08:17:13.253Z,992.02
2018-08-12T08:18:13.182Z,992.03
2018-08-12T08:19:13.111Z,991.99
2018-08-12T08:20:13.040Z,992.00
2018-08-12T08:21:12.968Z,992.01
2018-08-12T08:22:12.898Z,992.03
2018-08-12T08:23:12.827Z,992.06
2018-08-12T08:24:12.756Z,992.03
2018-08-12T08:25:12.686Z,992.04
2018-08-12T08:26:12.614Z,992.00
2018-08-12T08:27:12.546Z,992.03
2018-08-12T08:28:12.473Z,991.99
2018-08-12T08:29:12.400Z,992.00
2018-08-12T08:30:12.328Z,991.97
2018-08-12T08:31:12.259Z,991.99
2018-08-12T08:32:12.259Z,991.99
2018-08-12T08:33:12.117Z,991.98
2018-08-12T08:34:12.048Z,992.00
2018-08-12T08:35:11.975Z,991.98
2018-08-12T08:36:11.909Z,992.02
2018-08-12T08:37:11.834Z,992.01
2018-08-12T08:38:11.847Z,992.02
2018-08-12T08:39:11.689Z,992.01
2018-08-12T08:40:11.620Z,992.00
2018-08-12T08:41:11.549Z,991.98
2018-08-12T08:42:11.478Z,991.96
2018-08-12T08:43:11.406Z,991.97
2018-08-12T08:44:11.338Z,991.96
2018-08-12T08:45:11.266Z,992.00
2018-08-12T08:46:11.202Z,991.98
2018-08-12T08:47:11.123Z,992.00
2018-08-12T08:48:11.053Z,991.95
2018-08-12T08:49:10.982Z,991.95
2018-08-12T08:50:10.913Z,991.95
2018-08-12T08:51:10.839Z,991.92
2018-08-12T08:52:10.769Z,991.95
2018-08-12T08:53:10.716Z,991.93
2018-08-12T08:54:10.629Z,991.87
2018-08-12T08:55:10.557Z,991.87
2018-08-12T08:56:10.533Z,991.89
2018-08-12T08:57:10.417Z,991.84
2018-08-12T08:58:10.346Z,991.86
2018-08-12T08:59:10.276Z,991.79
2018-08-12T09:00:10.206Z,991.79
2018-08-12T09:01:10.169Z,991.81
2018-08-12T09:02:10.064Z,991.81
2018-08-12T09:03:09.993Z,991.77
2018-08-12T09:04:09.926Z,991.80
2018-08-12T09:05:09.853Z,991.78
2018-08-12T09:06:09.781Z,991.75
2018-08-12T09:07:09.710Z,991.77
2018-08-12T09:08:09.854Z,991.71
2018-08-12T09:09:09.973Z,991.70
2018-08-12T09:10:09.500Z,991.72
2018-08-12T09:11:09.428Z,991.70
2018-08-12T09:12:09.358Z,991.69
2018-08-12T09:13:09.287Z,991.71
2018-08-12T09:14:09.218Z,991.68
2018-08-12T09:15:09.147Z,991.70
2018-08-12T09:16:09.076Z,991.66
2018-08-12T09:17:09.006Z,991.68
2018-08-12T09:18:09.010Z,991.67
2018-08-12T09:19:08.865Z,991.66
2018-08-12T09:20:08.795Z,991.58
2018-08-12T09:21:08.724Z,991.61
2018-08-12T09:22:08.656Z,991.59
2018-08-12T09:23:08.584Z,991.60
2018-08-12T09:24:08.516Z,991.58
2018-08-12T09:25:08.442Z,991.58
2018-08-12T09:26:08.374Z,991.55
2018-08-12T09:27:08.302Z,991.57
2018-08-12T09:28:08.233Z,991.58
2018-08-12T09:29:08.161Z,991.59
2018-08-12T09:30:08.091Z,991.54
2018-08-12T09:31:08.023Z,991.49
2018-08-12T09:32:07.951Z,991.54
2018-08-12T09:33:07.883Z,991.55
2018-08-12T09:34:07.812Z,991.54
2018-08-12T09:35:07.740Z,991.54
2018-08-12T09:36:07.671Z,991.48
2018-08-12T09:37:07.601Z,991.45
2018-08-12T09:38:07.532Z,991.49
2018-08-12T09:39:07.460Z,991.46
2018-08-12T09:40:07.392Z,991.47
2018-08-12T09:41:07.321Z,991.46
2018-08-12T09:42:07.252Z,991.43
2018-08-12T09:43:07.271Z,991.42
2018-08-12T09:44:07.110Z,991.37
2018-08-12T09:45:07.039Z,991.39
2018-08-12T09:46:06.969Z,991.42
2018-08-12T09:47:06.899Z,991.39
2018-08-12T09:48:06.829Z,991.36
2018-08-12T09:49:06.758Z,991.31
2018-08-12T09:50:06.690Z,991.36
2018-08-12T09:51:06.618Z,991.35
2018-08-12T09:52:06.549Z,991.29
2018-08-12T09:53:06.480Z,991.33
2018-08-12T09:54:06.411Z,991.30
2018-08-12T09:55:06.338Z,991.31
2018-08-12T09:56:06.269Z,991.26
2018-08-12T09:57:06.199Z,991.27
2018-08-12T09:58:06.128Z,991.22
2018-08-12T09:59:06.059Z,991.19
2018-08-12T10:00:05.989Z,991.16
2018-08-12T10:01:05.920Z,991.17
2018-08-12T10:02:05.851Z,991.19
2018-08-12T10:03:05.779Z,991.15
2018-08-12T10:04:05.713Z,991.13
2018-08-12T10:05:05.641Z,991.13
2018-08-12T10:06:05.571Z,991.09
2018-08-12T10:07:05.504Z,991.10
2018-08-12T10:08:05.431Z,991.08
2018-08-12T10:09:05.365Z,991.07
2018-08-12T10:10:05.292Z,991.05
2018-08-12T10:11:05.222Z,990.99
2018-08-12T10:12:05.151Z,991.03
2018-08-12T10:13:05.083Z,991.04
2018-08-12T10:14:05.013Z,990.97
2018-08-12T10:15:04.943Z,991.03
2018-08-12T10:16:04.872Z,990.97
2018-08-12T10:17:04.804Z,990.95
2018-08-12T10:18:04.734Z,990.96
2018-08-12T10:19:04.665Z,990.93
2018-08-12T10:20:04.595Z,990.91
2018-08-12T10:21:04.527Z,990.92
2018-08-12T10:22:04.457Z,990.86
2018-08-12T10:23:04.386Z,990.88
2018-08-12T10:24:04.316Z,990.86
2018-08-12T10:25:04.248Z,990.87
2018-08-12T10:26:04.179Z,990.93
2018-08-12T10:27:04.109Z,990.93
2018-08-12T10:28:04.039Z,990.88
2018-08-12T10:29:03.973Z,990.90
2018-08-12T10:30:03.901Z,990.84
2018-08-12T10:31:03.832Z,990.80
2018-08-12T10:32:03.762Z,990.81
2018-08-12T10:33:03.692Z,990.81
2018-08-12T10:34:03.625Z,990.77
2018-08-12T10:35:03.553Z,990.80
2018-08-12T10:36:03.484Z,990.86
2018-08-12T10:37:03.415Z,990.80
2018-08-12T10:38:03.347Z,990.85
2018-08-12T10:39:03.277Z,990.81
2018-08-12T10:40:03.210Z,990.82
2018-08-12T10:41:03.138Z,990.71
2018-08-12T10:42:03.069Z,990.72
2018-08-12T10:43:03.007Z,990.71
2018-08-12T10:44:02.932Z,990.73
2018-08-12T10:45:02.864Z,990.71
2018-08-12T10:46:02.792Z,990.68
2018-08-12T10:47:02.724Z,990.66
2018-08-12T10:48:02.655Z,990.67
2018-08-12T10:49:02.585Z,990.66
2018-08-12T10:50:02.516Z,990.65
2018-08-12T10:51:02.449Z,990.70
2018-08-12T10:52:02.377Z,990.64
2018-08-12T10:53:02.308Z,990.62
2018-08-12T10:54:02.242Z,990.68
2018-08-12T10:55:02.170Z,990.66
2018-08-12T10:56:02.111Z,990.63
2018-08-12T10:57:02.034Z,990.61
2018-08-12T10:58:01.964Z,990.57
2018-08-12T10:59:01.894Z,990.55
2018-08-12T11:00:01.829Z,990.56
2018-08-12T11:01:01.758Z,990.56
2018-08-12T11:02:01.689Z,990.58
2018-08-12T11:03:01.622Z,990.54
2018-08-12T11:04:01.550Z,990.59
2018-08-12T11:05:01.483Z,990.57
2018-08-12T11:06:01.414Z,990.58
2018-08-12T11:07:01.344Z,990.54
2018-08-12T11:08:01.276Z,990.52
2018-08-12T11:09:01.207Z,990.52
2018-08-12T11:10:01.140Z,990.55
2018-08-12T11:11:01.070Z,990.55
2018-08-12T11:12:01.003Z,990.59
2018-08-12T11:13:00.937Z,990.46
2018-08-12T11:14:00.865Z,990.50
2018-08-12T11:15:00.798Z,990.40
2018-08-12T11:16:00.730Z,990.43
2018-08-12T11:17:00.662Z,990.40
2018-08-12T11:18:00.593Z,990.35
2018-08-12T11:19:00.524Z,990.40
2018-08-12T11:20:00.460Z,990.35
2018-08-12T11:21:00.392Z,990.37
2018-08-12T11:22:00.321Z,990.33
2018-08-12T11:23:00.253Z,990.38
2018-08-12T11:24:00.186Z,990.38
2018-08-12T11:25:00.118Z,990.35
2018-08-12T11:26:00.053Z,990.39
2018-08-12T11:26:59.982Z,990.31
2018-08-12T11:27:59.916Z,990.34
2018-08-12T11:28:59.848Z,990.32
2018-08-12T11:29:59.780Z,990.28
2018-08-12T11:30:59.713Z,990.27
2018-08-12T11:31:59.646Z,990.30
2018-08-12T11:32:59.579Z,990.27
2018-08-12T11:33:59.511Z,990.21
2018-08-12T11:34:59.445Z,990.19
2018-08-12T11:35:59.376Z,990.21
2018-08-12T11:36:59.309Z,990.27
2018-08-12T11:37:59.243Z,990.28
2018-08-12T11:38:59.173Z,990.24
2018-08-12T11:39:59.107Z,990.14
2018-08-12T11:40:59.042Z,990.19
2018-08-12T11:41:58.986Z,989.97
2018-08-12T11:42:58.908Z,989.39
2018-08-12T11:43:58.842Z,989.62
2018-08-12T11:44:58.777Z,989.59
2018-08-12T11:45:58.710Z,989.68
2018-08-12T11:46:58.645Z,989.76
2018-08-12T11:47:58.579Z,989.91
2018-08-12T11:48:58.516Z,989.89
2018-08-12T11:49:58.451Z,989.91
2018-08-12T11:50:58.387Z,989.88
2018-08-12T11:51:58.323Z,989.75
2018-08-12T11:52:58.268Z,989.64
2018-08-12T11:53:58.200Z,989.67
2018-08-12T11:54:58.136Z,989.89
2018-08-12T11:55:58.077Z,989.91
2018-08-12T11:56:58.061Z,989.96
2018-08-12T11:57:57.950Z,990.02
2018-08-12T11:58:57.889Z,989.94
2018-08-12T11:59:57.828Z,989.88
2018-08-12T12:00:57.768Z,989.89
2018-08-12T12:01:57.708Z,989.91
2018-08-12T12:02:57.645Z,989.91
2018-08-12T12:03:57.587Z,990.02
2018-08-12T12:04:57.526Z,989.99
2018-08-12T12:05:57.467Z,989.95
2018-08-12T12:06:57.408Z,990.06
2018-08-12T12:07:57.350Z,989.95
2018-08-12T12:08:57.292Z,990.03
2018-08-12T12:09:57.232Z,990.09
2018-08-12T12:10:57.174Z,990.15
2018-08-12T12:11:57.115Z,990.15
2018-08-12T12:12:57.059Z,990.15
2018-08-12T12:13:57.000Z,990.09
2018-08-12T12:14:56.977Z,990.16
2018-08-12T12:15:56.885Z,990.21
2018-08-12T12:16:56.827Z,990.27
2018-08-12T12:17:56.770Z,990.24
2018-08-12T12:18:56.711Z,990.39
2018-08-12T12:19:56.654Z,990.38
2018-08-12T12:20:56.597Z,990.31
2018-08-12T12:21:56.540Z,990.39
2018-08-12T12:22:56.483Z,990.35
2018-08-12T12:23:56.430Z,990.25
2018-08-12T12:24:56.369Z,990.32
2018-08-12T12:25:56.376Z,990.37
2018-08-12T12:26:56.270Z,990.47
2018-08-12T12:27:56.199Z,990.61